Latest Coastal Weather Observations for Cairns

IDQ60701

Issued at 3:12 pm EST Tuesday 7 July 2015 (issued every 10 minutes, with the page automatically refreshed every 10 minutes)

About coastal observations | Map of coastal stations | Coastal observations for QLD | Marine services | Other Formats
Station Details ID: 031011 Name: CAIRNS AERO Lat: -16.87 Lon: 145.75 Height: 2.22 m
Data from the previous 72 hours. | See also: Recent months at Cairns
Date/Time
EST
Temp

°C
Wind Pressure Rain
since 9am
mm
Weather Cloud Vis
km
Sea
Height
m
Swell
Dir
 
Speed
knots
Gust
knots
hPa Trend Height
m
Period
s
Dir
07/03:00pm 26.0 ESE 10 13 1014.4 R 0.0 Fine Mostly clear 30 - - - -
07/02:30pm 26.2 ENE 11 14 1014.7 - 0.0 - Mostly clear 10 - - - -
07/02:00pm 26.0 E 9 13 1014.7 - 0.0 - Mostly clear 10 - - - -
07/01:30pm 25.7 ESE 9 12 1015.1 - 0.0 - Mostly clear 10 - - - -
07/01:00pm 25.9 ESE 10 13 1015.6 - 0.0 - Mostly clear 10 - - - -
07/12:30pm 25.5 ESE 9 13 1016.0 - 0.0 - Mostly clear 10 - - - -
07/12:00pm 25.2 ESE 9 11 1016.4 - 0.0 - Mostly clear 10 - - - -
07/11:30am 25.3 SSE 9 14 1016.8 - 0.0 - Mostly clear 10 - - - -
07/11:00am 25.0 S 9 14 1017.2 - 0.0 - Mostly clear 10 - - - -
07/10:30am 24.2 S 7 11 1017.3 - 0.0 - Mostly clear 10 - - - -
07/10:00am 23.8 S 8 11 1017.5 - 0.0 - Mostly clear 10 - - - -
07/09:30am 23.2 SSE 5 10 1017.7 - 0.0 - Mostly clear 10 - - - -
07/09:00am 21.3 W 5 9 1017.7 R 0.4 Fine Mostly clear 30 - - - -
07/08:30am 19.8 SE 9 12 1017.6 - 0.4 - Mostly clear 10 - - - -
07/08:00am 18.7 SSW 4 9 1017.3 - 0.4 - Mostly clear 10 - - - -
07/07:30am 17.1 W 3 5 1017.0 - 0.4 - Mostly clear 10 - - - -
07/07:00am 16.4 W 4 5 1016.6 - 0.4 - Mostly clear 10 - - - -
07/06:30am 17.9 S 6 10 1016.3 - 0.4 - Mostly clear 10 - - - -
07/06:00am 17.9 SSE 10 14 1015.6 - 0.4 - - 10 - - - -
07/05:30am 16.9 SSW 3 5 1015.5 - 0.4 - Mostly clear 10 - - - -
07/05:00am 16.6 W 4 5 1015.3 - 0.4 - Mostly clear 10 - - - -
07/04:30am 16.8 S 4 6 1015.0 - 0.4 - Mostly clear 10 - - - -
07/04:00am 17.9 SSE 8 11 1014.9 - 0.4 - Mostly clear 10 - - - -
07/03:30am 17.9 SSE 9 10 1014.9 - 0.4 - Mostly clear 10 - - - -
07/03:00am 18.3 SSE 11 14 1014.8 - 0.4 - Mostly clear 10 - - - -
07/02:30am 18.3 SSE 8 13 1015.1 - 0.4 - Mostly clear 10 - - - -
07/02:00am 18.4 S 6 10 1015.5 - 0.4 - Mostly clear 10 - - - -
07/01:30am 18.6 SSE 9 12 1015.8 - 0.4 - Mostly clear 10 - - - -
07/12:30am 18.6 SSE 8 9 1016.2 - 0.4 - Mostly clear 10 - - - -
 
Date/Time
EST
Temp

°C
Wind Pressure Rain
since 9am
mm
Weather Cloud Vis
km
Sea
Height
m
Swell
Dir
 
Speed
knots
Gust
knots
hPa Trend Height
m
Period
s
Dir
06/11:30pm 18.8 SSE 7 9 1016.3 - 0.4 - Mostly clear 10 - - - -
06/11:00pm 18.5 S 7 8 1016.5 - 0.4 - Mostly clear 10 - - - -
06/10:30pm 19.5 SSE 6 9 1016.8 - 0.4 - Mostly clear 10 - - - -
06/10:00pm 20.5 S 9 14 1016.8 - 0.4 - Mostly clear 10 - - - -
06/09:30pm 20.5 S 9 13 1016.9 - 0.4 - Mostly clear 10 - - - -
06/09:00pm 20.8 S 9 13 1016.7 - 0.4 - Mostly clear 10 - - - -
06/08:30pm 20.7 SSE 8 11 1016.9 - 0.4 - Mostly clear 10 - - - -
06/08:00pm 21.2 SSE 10 14 1016.6 - 0.4 - Mostly clear 10 - - - -
06/07:30pm 21.3 S 9 14 1016.2 - 0.4 - Mostly clear 10 - - - -
06/07:00pm 21.4 SSE 9 12 1016.0 - 0.4 - Mostly clear 10 - - - -
06/06:30pm 21.8 SSE 8 13 1015.7 - 0.4 - Mostly clear 10 - - - -
06/06:00pm 22.0 SSE 7 10 1015.3 - 0.4 - Mostly clear 10 - - - -
06/05:30pm 22.7 SE 10 13 1015.2 - 0.4 - Mostly clear 10 - - - -
06/05:00pm 23.7 SE 11 15 1015.0 - 0.4 - Mostly clear 10 - - - -
06/04:30pm 24.4 SE 13 16 1014.7 - 0.4 - Mostly clear 10 - - - -
06/04:00pm 24.9 SE 12 16 1014.7 - 0.4 - Mostly clear 10 - - - -
06/03:30pm 25.3 ESE 12 16 1014.8 - 0.4 - Mostly clear 10 - - - -
06/03:00pm 25.8 ESE 12 16 1014.8 F 0.4 Fine Mostly clear 35 - - - -
06/02:30pm 25.9 ESE 13 16 1015.0 - 0.4 - Mostly clear 10 - - - -
06/02:00pm 25.7 ESE 13 16 1015.4 - 0.4 - Mostly clear 10 - - - -
06/01:30pm 25.7 ESE 13 16 1015.6 - 0.4 - Mostly clear 10 - - - -
06/01:00pm 26.1 ESE 12 16 1016.0 - 0.4 - Mostly clear 10 - - - -
06/12:30pm 25.3 SE 14 18 1016.5 - 0.4 - Mostly clear 10 - - - -
06/12:00pm 25.0 SSE 10 14 1017.0 - 0.4 - Mostly cloudy 10 - - - -
06/11:30am 23.3 SSE 8 12 1017.6 - 0.4 - Mostly clear 10 - - - -
06/11:00am 22.5 S 6 11 1018.1 - 0.4 - Mostly clear 10 - - - -
06/10:30am 20.8 SSE 7 10 1018.3 - 0.2 Showers Partly cloudy 10 - - - -
06/10:00am 21.4 SSE 6 9 1018.4 - 0.0 - Mostly clear 10 - - - -
06/09:30am 21.7 SSE 5 7 1018.4 - 0.0 Showers Mostly clear 10 - - - -
06/09:00am 20.8 SSE 8 10 1018.1 R 1.0 Distant precip. Cloudy 15 - - - -
06/08:30am 20.7 SSE 8 12 1018.0 - 1.0 Showers Mostly clear 10 - - - -
06/08:00am 20.3 S 9 13 1017.5 - 1.0 - Mostly clear 10 - - - -
06/07:30am 20.0 S 8 15 1017.3 - 1.0 - Mostly clear 10 - - - -
06/07:00am 20.2 S 9 14 1017.1 - 1.0 - Mostly clear 10 - - - -
06/06:30am 19.7 SSE 9 14 1016.9 - 1.0 - Mostly clear 10 - - - -
06/06:00am 20.3 SSE 7 11 1016.4 - 1.0 - Cloudy 10 - - - -
06/05:30am 20.3 S 6 9 1016.4 - 1.0 - Mostly clear 10 - - - -
06/05:00am 20.2 S 7 12 1016.4 - 1.0 - Mostly clear 10 - - - -
06/04:30am 19.1 SE 8 9 1016.6 - 1.0 - Mostly clear 10 - - - -
06/04:00am 19.6 SSE 8 9 1016.4 - 1.0 - Mostly clear 10 - - - -
06/03:30am 19.7 SE 7 10 1016.6 - 1.0 - Mostly clear 10 - - - -
06/03:00am 20.1 S 9 15 1016.4 - 1.0 - Cloudy 10 - - - -
06/02:30am 20.4 S 7 11 1016.6 - 1.0 - Mostly clear 10 - - - -
06/02:00am 20.1 S 7 10 1017.0 - 1.0 - Mostly clear 10 - - - -
06/01:30am 20.1 S 8 12 1017.3 - 1.0 - Mostly clear 10 - - - -
06/01:00am 19.8 SSE 11 16 1017.7 - 1.0 - Mostly clear 10 - - - -
06/12:30am 20.0 S 8 13 1017.7 - 1.0 - Mostly clear 10 - - - -
06/12:00am 20.2 S 8 12 1017.4 - 1.0 - Cloudy 10 - - - -
 
Date/Time
EST
Temp

°C
Wind Pressure Rain
since 9am
mm
Weather Cloud Vis
km
Sea
Height
m
Swell
Dir
 
Speed
knots
Gust
knots
hPa Trend Height
m
Period
s
Dir
05/11:30pm 20.3 S 8 11 1017.7 - 1.0 - Mostly clear 10 - - - -
05/11:00pm 19.9 S 8 10 1017.9 - 1.0 - Mostly clear 10 - - - -
05/10:30pm 20.1 S 9 15 1017.9 - 1.0 - Mostly clear 10 - - - -
05/10:00pm 20.1 SSE 8 13 1018.1 - 1.0 - Mostly clear 10 - - - -
05/09:30pm 20.3 S 7 11 1018.1 - 1.0 - Mostly clear 10 - - - -
05/09:00pm 20.4 S 9 16 1017.9 - 1.0 - Mostly clear 10 - - - -
05/08:30pm 20.8 SSE 11 16 1017.7 - 1.0 - Mostly clear 10 - - - -
05/08:00pm 20.7 S 8 11 1017.6 - 1.0 - Mostly clear 10 - - - -
05/07:30pm 20.7 S 6 9 1017.3 - 1.0 - Mostly clear 10 - - - -
05/07:00pm 20.8 S 6 10 1016.9 - 1.0 - Mostly clear 10 - - - -
05/06:30pm 20.7 S 2 7 1016.6 - 1.0 - Mostly clear 10 - - - -
05/06:00pm 20.6 W 4 5 1016.3 - 1.0 - Mostly clear 10 - - - -
05/05:30pm 21.3 W 5 6 1016.2 - 1.0 - Mostly clear 10 - - - -
05/05:00pm 21.7 WSW 3 4 1016.1 - 1.0 - Mostly clear 10 - - - -
05/04:30pm 21.3 S 6 9 1016.2 - 1.0 Showers Mostly clear 10 - - - -
05/04:00pm 22.3 SSE 12 16 1016.1 - 1.0 Showers Partly cloudy 10 - - - -
05/03:30pm 23.6 SSE 15 18 1015.8 - 1.0 - Mostly clear 10 - - - -
05/03:00pm 24.5 SE 11 14 1015.6 R 1.0 Fine Mostly cloudy 30 - - - -
05/02:30pm 25.2 SE 10 13 1015.8 - 1.0 - Mostly clear 10 - - - -
05/02:00pm 24.8 SE 11 15 1015.9 - 1.0 - Partly cloudy 10 - - - -
05/01:30pm 25.3 ESE 11 14 1016.3 - 1.0 - Mostly clear 10 - - - -
05/01:00pm 22.7 NE 7 10 1016.9 - 0.8 Showers Mostly clear 10 - - - -
05/12:30pm 23.6 E 4 7 1017.2 - 0.8 - Partly cloudy 10 - - - -
05/12:00pm 22.0 N 5 8 1017.4 - 0.8 - Cloudy 10 - - - -
05/11:30am 22.7 ENE 4 7 1018.0 - 0.8 - Mostly clear 10 - - - -
05/11:00am 21.1 SE 5 7 1018.6 - 0.8 Showers Mostly clear 8 - - - -
05/10:46am 20.8 ESE 7 11 1018.8 - 0.8 Showers Mostly clear 8 - - - -
05/10:30am 21.0 SE 9 14 1018.8 - 0.2 Showers Mostly clear 5 - - - -
05/10:24am 21.0 SSE 10 15 1018.7 - 0.0 Showers Mostly clear 8 - - - -
05/10:13am 21.8 SSE 9 14 1018.7 - 0.0 Showers Mostly clear 5 - - - -
05/10:00am 21.9 S 9 15 1018.6 - 0.0 Showers Mostly clear 10 - - - -
05/09:30am 21.3 S 8 12 1018.6 - 0.0 Showers Mostly clear 10 - - - -
05/09:00am 21.0 S 11 15 1018.2 S 0.0 Distant precip. Mostly cloudy 20 - - - -
05/08:30am 20.4 S 13 17 1018.0 - 0.0 - Partly cloudy 10 - - - -
05/08:00am 20.3 S 10 14 1017.8 - 0.0 - Partly cloudy 10 - - - -
05/07:30am 19.6 SSW 6 10 1017.7 - 0.0 - Mostly clear 10 - - - -
05/07:00am 18.5 SE 7 10 1017.5 - 0.0 - Mostly clear 10 - - - -
05/06:30am 18.2 SE 8 10 1017.2 - 0.0 - Mostly clear 10 - - - -
05/06:00am 20.1 S 7 11 1016.7 - 0.0 - Partly cloudy 10 - - - -
05/05:30am 20.4 S 7 13 1016.6 - 0.0 - Mostly clear 10 - - - -
05/05:00am 20.2 S 9 15 1016.5 - 0.0 - Mostly clear 10 - - - -
05/04:30am 17.8 SE 6 10 1016.5 - 0.0 - Mostly clear 10 - - - -
05/04:00am 19.7 S 7 13 1016.3 - 0.0 - Mostly clear 10 - - - -
05/03:30am 20.1 S 7 15 1016.3 - 0.0 - Mostly clear 10 - - - -
05/03:00am 20.2 S 7 12 1016.4 - 0.0 - Mostly clear 10 - - - -
05/02:30am 18.0 SE 9 11 1016.6 - 0.0 - Mostly clear 10 - - - -
05/02:00am 19.1 SSE 9 13 1016.7 - 0.0 - Mostly clear 10 - - - -
05/01:30am 18.3 SE 9 11 1017.0 - 0.0 - Mostly clear 10 - - - -
05/01:00am 18.1 SE 8 11 1017.3 - 0.0 - Mostly clear 10 - - - -
05/12:30am 19.8 S 8 12 1017.3 - 0.0 - Mostly clear 10 - - - -
05/12:00am 19.4 S 9 15 1017.4 - 0.0 - Mostly clear 10 - - - -
 
Date/Time
EST
Temp

°C
Wind Pressure Rain
since 9am
mm
Weather Cloud Vis
km
Sea
Height
m
Swell
Dir
 
Speed
knots
Gust
knots
hPa Trend Height
m
Period
s
Dir
04/11:30pm 19.8 S 10 15 1017.5 - 0.0 - Mostly clear 10 - - - -
04/11:00pm 20.0 S 11 17 1017.6 - 0.0 - Mostly clear 10 - - - -
04/10:30pm 19.8 S 10 16 1018.0 - 0.0 - Mostly clear 10 - - - -
04/10:00pm 19.3 SSE 8 12 1018.1 - 0.0 - Mostly clear 10 - - - -
04/09:30pm 19.8 S 9 13 1018.0 - 0.0 - Mostly clear 10 - - - -
04/09:00pm 19.1 SSE 8 10 1017.8 - 0.0 - Mostly clear 10 - - - -
04/08:30pm 19.3 SSE 7 10 1017.8 - 0.0 - Mostly clear 10 - - - -
04/08:00pm 19.9 S 9 15 1017.6 - 0.0 - Mostly clear 10 - - - -
04/07:30pm 20.1 S 9 14 1017.5 - 0.0 - Mostly clear 10 - - - -
04/07:00pm 20.2 S 6 10 1017.3 - 0.0 - Mostly clear 10 - - - -
04/06:30pm 19.8 S 7 9 1016.9 - 0.0 - Mostly clear 10 - - - -
04/06:00pm 20.4 S 7 9 1016.5 - 0.0 - Mostly clear 10 - - - -
04/05:30pm 21.2 SSE 9 13 1016.4 - 0.0 - Mostly clear 10 - - - -
04/05:00pm 23.2 SE 10 14 1016.0 - 0.0 - Mostly clear 10 - - - -
04/04:30pm 23.7 ESE 12 14 1016.0 - 0.0 - Mostly clear 10 - - - -
04/04:00pm 24.2 SE 12 16 1015.9 - 0.0 - Mostly clear 10 - - - -
04/03:30pm 24.5 SE 12 16 1015.9 - 0.0 - Mostly clear 10 - - - -

Other Formats:

Comma delimited format used in spreadsheet applications
http://www.bom.gov.au/fwo/IDQ60701/IDQ60701.94287.axf

JavaScript Object Notation format (JSON) in row-major order
http://www.bom.gov.au/fwo/IDQ60701/IDQ60701.94287.json